sensor_id;sensor_type;location;lat;lon;timestamp;temperature;humidity
22779;DHT22;11556;51.194;3.800;2023-06-04T00:00:25;14.70;99.90
22779;DHT22;11556;51.194;3.800;2023-06-04T00:02:51;14.70;99.90
22779;DHT22;11556;51.194;3.800;2023-06-04T00:05:17;14.70;99.90
22779;DHT22;11556;51.194;3.800;2023-06-04T00:07:42;14.60;99.90
22779;DHT22;11556;51.194;3.800;2023-06-04T00:10:08;14.60;99.90
22779;DHT22;11556;51.194;3.800;2023-06-04T00:12:35;14.60;99.90
22779;DHT22;11556;51.194;3.800;2023-06-04T00:15:01;14.60;99.90
22779;DHT22;11556;51.194;3.800;2023-06-04T00:17:26;14.50;99.90
22779;DHT22;11556;51.194;3.800;2023-06-04T00:19:52;14.40;99.90
22779;DHT22;11556;51.194;3.800;2023-06-04T00:22:18;14.40;99.90
22779;DHT22;11556;51.194;3.800;2023-06-04T00:24:43;14.30;99.90
22779;DHT22;11556;51.194;3.800;2023-06-04T00:27:09;14.30;99.90
22779;DHT22;11556;51.194;3.800;2023-06-04T00:29:35;14.30;99.90
22779;DHT22;11556;51.194;3.800;2023-06-04T00:32:01;14.30;99.90
22779;DHT22;11556;51.194;3.800;2023-06-04T00:34:26;14.30;99.90
22779;DHT22;11556;51.194;3.800;2023-06-04T00:36:52;14.20;99.90
22779;DHT22;11556;51.194;3.800;2023-06-04T00:39:18;14.20;99.90
22779;DHT22;11556;51.194;3.800;2023-06-04T00:41:44;14.20;99.90
22779;DHT22;11556;51.194;3.800;2023-06-04T00:44:09;14.10;99.90
22779;DHT22;11556;51.194;3.800;2023-06-04T00:46:37;14.20;99.90
22779;DHT22;11556;51.194;3.800;2023-06-04T00:49:03;14.20;99.90
22779;DHT22;11556;51.194;3.800;2023-06-04T00:51:30;14.10;99.90
22779;DHT22;11556;51.194;3.800;2023-06-04T00:53:56;14.10;99.90
22779;DHT22;11556;51.194;3.800;2023-06-04T00:56:23;14.00;99.90
22779;DHT22;11556;51.194;3.800;2023-06-04T00:58:49;14.00;99.90
22779;DHT22;11556;51.194;3.800;2023-06-04T01:04:21;13.90;99.90
22779;DHT22;11556;51.194;3.800;2023-06-04T01:06:50;13.90;99.90
22779;DHT22;11556;51.194;3.800;2023-06-04T01:09:19;13.90;99.90
22779;DHT22;11556;51.194;3.800;2023-06-04T01:11:45;13.90;99.90
22779;DHT22;11556;51.194;3.800;2023-06-04T01:14:11;13.90;99.90
22779;DHT22;11556;51.194;3.800;2023-06-04T01:16:56;13.80;99.90
22779;DHT22;11556;51.194;3.800;2023-06-04T01:25:20;13.80;99.90
22779;DHT22;11556;51.194;3.800;2023-06-04T01:27:51;13.70;99.90
22779;DHT22;11556;51.194;3.800;2023-06-04T01:30:51;13.70;99.90
22779;DHT22;11556;51.194;3.800;2023-06-04T01:33:12;13.60;99.90
22779;DHT22;11556;51.194;3.800;2023-06-04T01:35:38;13.60;99.90
22779;DHT22;11556;51.194;3.800;2023-06-04T01:38:04;13.60;99.90
22779;DHT22;11556;51.194;3.800;2023-06-04T01:40:30;13.50;99.90
22779;DHT22;11556;51.194;3.800;2023-06-04T01:42:56;13.50;99.90
22779;DHT22;11556;51.194;3.800;2023-06-04T01:45:22;13.50;99.90
22779;DHT22;11556;51.194;3.800;2023-06-04T01:47:48;13.50;99.90
22779;DHT22;11556;51.194;3.800;2023-06-04T01:50:14;13.50;99.90
22779;DHT22;11556;51.194;3.800;2023-06-04T01:52:40;13.50;99.90
22779;DHT22;11556;51.194;3.800;2023-06-04T01:55:07;13.40;99.90
22779;DHT22;11556;51.194;3.800;2023-06-04T01:57:34;13.40;99.90
22779;DHT22;11556;51.194;3.800;2023-06-04T02:00:01;13.40;99.90
22779;DHT22;11556;51.194;3.800;2023-06-04T02:02:27;13.40;99.90
22779;DHT22;11556;51.194;3.800;2023-06-04T02:04:53;13.30;99.90
22779;DHT22;11556;51.194;3.800;2023-06-04T02:07:19;13.30;99.90
22779;DHT22;11556;51.194;3.800;2023-06-04T02:09:48;13.30;99.90
22779;DHT22;11556;51.194;3.800;2023-06-04T02:12:13;13.20;99.90
22779;DHT22;11556;51.194;3.800;2023-06-04T02:14:39;13.20;99.90
22779;DHT22;11556;51.194;3.800;2023-06-04T02:17:07;13.20;99.90
22779;DHT22;11556;51.194;3.800;2023-06-04T02:19:40;13.20;99.90
22779;DHT22;11556;51.194;3.800;2023-06-04T02:22:12;13.20;99.90
22779;DHT22;11556;51.194;3.800;2023-06-04T02:24:39;13.10;99.90
22779;DHT22;11556;51.194;3.800;2023-06-04T02:27:08;13.10;99.90
22779;DHT22;11556;51.194;3.800;2023-06-04T02:29:34;13.10;99.90
22779;DHT22;11556;51.194;3.800;2023-06-04T02:32:01;13.10;99.90
22779;DHT22;11556;51.194;3.800;2023-06-04T02:34:26;13.10;99.90
22779;DHT22;11556;51.194;3.800;2023-06-04T02:36:52;13.10;99.90
22779;DHT22;11556;51.194;3.800;2023-06-04T02:39:18;13.10;99.90
22779;DHT22;11556;51.194;3.800;2023-06-04T02:41:44;13.10;99.90
22779;DHT22;11556;51.194;3.800;2023-06-04T02:44:10;13.00;99.90
22779;DHT22;11556;51.194;3.800;2023-06-04T02:46:36;13.00;99.90
22779;DHT22;11556;51.194;3.800;2023-06-04T02:49:02;13.00;99.90
22779;DHT22;11556;51.194;3.800;2023-06-04T02:51:28;13.00;99.90
22779;DHT22;11556;51.194;3.800;2023-06-04T02:53:54;13.00;99.90
22779;DHT22;11556;51.194;3.800;2023-06-04T02:56:20;13.00;99.90
22779;DHT22;11556;51.194;3.800;2023-06-04T02:58:52;13.00;99.90
22779;DHT22;11556;51.194;3.800;2023-06-04T03:01:23;13.00;99.90
22779;DHT22;11556;51.194;3.800;2023-06-04T03:03:49;12.90;99.90
22779;DHT22;11556;51.194;3.800;2023-06-04T03:06:16;12.80;99.90
22779;DHT22;11556;51.194;3.800;2023-06-04T03:08:42;12.90;99.90
22779;DHT22;11556;51.194;3.800;2023-06-04T03:11:08;12.90;99.90
22779;DHT22;11556;51.194;3.800;2023-06-04T03:13:34;12.80;99.90
22779;DHT22;11556;51.194;3.800;2023-06-04T03:16:01;12.70;99.90
22779;DHT22;11556;51.194;3.800;2023-06-04T03:18:30;12.70;99.90
22779;DHT22;11556;51.194;3.800;2023-06-04T03:20:56;12.60;99.90
22779;DHT22;11556;51.194;3.800;2023-06-04T03:23:22;12.70;99.90
22779;DHT22;11556;51.194;3.800;2023-06-04T03:25:48;12.60;99.90
22779;DHT22;11556;51.194;3.800;2023-06-04T03:28:14;12.60;99.90
22779;DHT22;11556;51.194;3.800;2023-06-04T03:30:40;12.70;99.90
22779;DHT22;11556;51.194;3.800;2023-06-04T03:33:07;12.70;99.90
22779;DHT22;11556;51.194;3.800;2023-06-04T03:35:33;12.70;99.90
22779;DHT22;11556;51.194;3.800;2023-06-04T03:37:58;12.70;99.90
22779;DHT22;11556;51.194;3.800;2023-06-04T03:40:24;12.60;99.90
22779;DHT22;11556;51.194;3.800;2023-06-04T03:42:50;12.70;99.90
22779;DHT22;11556;51.194;3.800;2023-06-04T03:45:15;12.60;99.90
22779;DHT22;11556;51.194;3.800;2023-06-04T03:47:41;12.60;99.90
22779;DHT22;11556;51.194;3.800;2023-06-04T03:50:07;12.60;99.90
22779;DHT22;11556;51.194;3.800;2023-06-04T03:52:33;12.70;99.90
22779;DHT22;11556;51.194;3.800;2023-06-04T03:54:59;12.70;99.90
22779;DHT22;11556;51.194;3.800;2023-06-04T03:57:25;12.70;99.90
22779;DHT22;11556;51.194;3.800;2023-06-04T03:59:51;12.70;99.90
22779;DHT22;11556;51.194;3.800;2023-06-04T04:02:16;12.80;99.90
22779;DHT22;11556;51.194;3.800;2023-06-04T04:04:44;12.80;99.90
22779;DHT22;11556;51.194;3.800;2023-06-04T04:07:09;12.80;99.90
22779;DHT22;11556;51.194;3.800;2023-06-04T04:09:36;12.80;99.90
22779;DHT22;11556;51.194;3.800;2023-06-04T04:12:03;12.80;99.90
22779;DHT22;11556;51.194;3.800;2023-06-04T04:14:28;12.80;99.90
22779;DHT22;11556;51.194;3.800;2023-06-04T04:16:54;12.90;99.90
22779;DHT22;11556;51.194;3.800;2023-06-04T04:19:20;12.90;99.90
22779;DHT22;11556;51.194;3.800;2023-06-04T04:21:46;12.90;99.90
22779;DHT22;11556;51.194;3.800;2023-06-04T04:24:26;12.90;99.90
22779;DHT22;11556;51.194;3.800;2023-06-04T04:26:52;13.00;99.90
22779;DHT22;11556;51.194;3.800;2023-06-04T04:29:20;13.00;99.90
22779;DHT22;11556;51.194;3.800;2023-06-04T04:31:49;13.00;99.90
22779;DHT22;11556;51.194;3.800;2023-06-04T04:34:15;13.10;99.90
22779;DHT22;11556;51.194;3.800;2023-06-04T04:36:40;13.10;99.90
22779;DHT22;11556;51.194;3.800;2023-06-04T04:39:06;13.20;99.90
22779;DHT22;11556;51.194;3.800;2023-06-04T04:41:32;13.20;99.90
22779;DHT22;11556;51.194;3.800;2023-06-04T04:44:06;13.30;99.90
22779;DHT22;11556;51.194;3.800;2023-06-04T04:46:32;13.40;99.90
22779;DHT22;11556;51.194;3.800;2023-06-04T04:48:58;13.60;99.90
22779;DHT22;11556;51.194;3.800;2023-06-04T04:51:23;13.80;99.90
22779;DHT22;11556;51.194;3.800;2023-06-04T04:53:49;14.30;99.90
22779;DHT22;11556;51.194;3.800;2023-06-04T04:56:14;14.90;99.90
22779;DHT22;11556;51.194;3.800;2023-06-04T04:58:40;15.70;99.90
22779;DHT22;11556;51.194;3.800;2023-06-04T05:01:06;16.50;99.90
22779;DHT22;11556;51.194;3.800;2023-06-04T05:03:31;17.20;99.90
22779;DHT22;11556;51.194;3.800;2023-06-04T05:05:57;17.80;99.90
22779;DHT22;11556;51.194;3.800;2023-06-04T05:08:22;18.40;99.90
22779;DHT22;11556;51.194;3.800;2023-06-04T05:10:50;19.10;99.90
22779;DHT22;11556;51.194;3.800;2023-06-04T05:13:15;19.40;99.90
22779;DHT22;11556;51.194;3.800;2023-06-04T05:15:42;19.80;99.90
22779;DHT22;11556;51.194;3.800;2023-06-04T05:18:07;20.00;99.90
22779;DHT22;11556;51.194;3.800;2023-06-04T05:20:34;20.30;99.90
22779;DHT22;11556;51.194;3.800;2023-06-04T05:23:03;21.10;99.90
22779;DHT22;11556;51.194;3.800;2023-06-04T05:25:29;21.30;99.90
22779;DHT22;11556;51.194;3.800;2023-06-04T05:27:56;21.10;99.90
22779;DHT22;11556;51.194;3.800;2023-06-04T05:30:22;21.00;99.90
22779;DHT22;11556;51.194;3.800;2023-06-04T05:32:48;22.00;99.90
22779;DHT22;11556;51.194;3.800;2023-06-04T05:35:16;22.50;99.30
22779;DHT22;11556;51.194;3.800;2023-06-04T05:37:41;22.30;98.40
22779;DHT22;11556;51.194;3.800;2023-06-04T05:40:08;23.10;96.30
22779;DHT22;11556;51.194;3.800;2023-06-04T05:42:35;23.50;94.90
22779;DHT22;11556;51.194;3.800;2023-06-04T05:45:01;23.40;94.00
22779;DHT22;11556;51.194;3.800;2023-06-04T05:47:27;24.00;92.40
22779;DHT22;11556;51.194;3.800;2023-06-04T05:49:57;24.40;91.20
22779;DHT22;11556;51.194;3.800;2023-06-04T05:52:23;24.50;90.30
22779;DHT22;11556;51.194;3.800;2023-06-04T05:54:49;25.10;87.10
22779;DHT22;11556;51.194;3.800;2023-06-04T05:57:15;25.10;86.40
22779;DHT22;11556;51.194;3.800;2023-06-04T05:59:40;24.90;82.90
22779;DHT22;11556;51.194;3.800;2023-06-04T06:02:06;25.00;83.00
22779;DHT22;11556;51.194;3.800;2023-06-04T06:04:32;25.40;82.40
22779;DHT22;11556;51.194;3.800;2023-06-04T06:06:58;25.50;80.70
22779;DHT22;11556;51.194;3.800;2023-06-04T06:09:23;25.20;78.30
22779;DHT22;11556;51.194;3.800;2023-06-04T06:11:49;25.00;78.80
22779;DHT22;11556;51.194;3.800;2023-06-04T06:14:15;24.80;78.10
22779;DHT22;11556;51.194;3.800;2023-06-04T06:16:40;25.00;77.90
22779;DHT22;11556;51.194;3.800;2023-06-04T06:19:06;25.40;76.00
22779;DHT22;11556;51.194;3.800;2023-06-04T06:21:32;26.20;73.00
22779;DHT22;11556;51.194;3.800;2023-06-04T06:23:57;25.60;71.70
22779;DHT22;11556;51.194;3.800;2023-06-04T06:26:23;25.00;73.50
22779;DHT22;11556;51.194;3.800;2023-06-04T06:28:50;24.40;74.70
22779;DHT22;11556;51.194;3.800;2023-06-04T06:31:16;24.40;75.20
22779;DHT22;11556;51.194;3.800;2023-06-04T06:33:41;24.50;75.50
22779;DHT22;11556;51.194;3.800;2023-06-04T06:36:09;24.40;74.60
22779;DHT22;11556;51.194;3.800;2023-06-04T06:38:35;24.50;74.60
22779;DHT22;11556;51.194;3.800;2023-06-04T06:41:00;24.90;72.70
22779;DHT22;11556;51.194;3.800;2023-06-04T06:43:26;25.60;72.20
22779;DHT22;11556;51.194;3.800;2023-06-04T06:45:52;26.40;69.90
22779;DHT22;11556;51.194;3.800;2023-06-04T06:48:17;27.30;66.20
22779;DHT22;11556;51.194;3.800;2023-06-04T06:50:43;27.40;66.00
22779;DHT22;11556;51.194;3.800;2023-06-04T06:53:08;27.50;66.00
22779;DHT22;11556;51.194;3.800;2023-06-04T06:55:34;28.30;63.10
22779;DHT22;11556;51.194;3.800;2023-06-04T06:58:00;28.50;59.00
22779;DHT22;11556;51.194;3.800;2023-06-04T07:00:26;27.80;59.50
22779;DHT22;11556;51.194;3.800;2023-06-04T07:02:53;27.60;59.20
22779;DHT22;11556;51.194;3.800;2023-06-04T07:05:19;27.70;59.00
22779;DHT22;11556;51.194;3.800;2023-06-04T07:07:45;27.30;58.80
22779;DHT22;11556;51.194;3.800;2023-06-04T07:10:12;26.90;58.80
22779;DHT22;11556;51.194;3.800;2023-06-04T07:12:38;27.20;58.60
22779;DHT22;11556;51.194;3.800;2023-06-04T07:15:05;26.90;58.90
22779;DHT22;11556;51.194;3.800;2023-06-04T07:17:32;26.70;59.40
22779;DHT22;11556;51.194;3.800;2023-06-04T07:19:57;27.10;58.70
22779;DHT22;11556;51.194;3.800;2023-06-04T07:22:23;27.10;58.40
22779;DHT22;11556;51.194;3.800;2023-06-04T07:24:48;26.90;58.60
22779;DHT22;11556;51.194;3.800;2023-06-04T07:27:15;26.70;58.70
22779;DHT22;11556;51.194;3.800;2023-06-04T07:29:43;26.50;59.10
22779;DHT22;11556;51.194;3.800;2023-06-04T07:32:10;26.60;59.20
22779;DHT22;11556;51.194;3.800;2023-06-04T07:34:35;26.50;60.00
22779;DHT22;11556;51.194;3.800;2023-06-04T07:37:02;26.20;60.50
22779;DHT22;11556;51.194;3.800;2023-06-04T07:39:28;25.80;63.80
22779;DHT22;11556;51.194;3.800;2023-06-04T07:41:54;25.40;62.70
22779;DHT22;11556;51.194;3.800;2023-06-04T07:44:19;24.80;65.20
22779;DHT22;11556;51.194;3.800;2023-06-04T07:46:45;24.70;64.50
22779;DHT22;11556;51.194;3.800;2023-06-04T07:49:11;24.50;66.10
22779;DHT22;11556;51.194;3.800;2023-06-04T07:51:36;24.10;68.50
22779;DHT22;11556;51.194;3.800;2023-06-04T07:54:02;24.30;69.40
22779;DHT22;11556;51.194;3.800;2023-06-04T07:56:28;24.70;67.80
22779;DHT22;11556;51.194;3.800;2023-06-04T07:58:54;24.70;63.50
22779;DHT22;11556;51.194;3.800;2023-06-04T08:01:19;25.60;61.60
22779;DHT22;11556;51.194;3.800;2023-06-04T08:03:45;26.70;58.30
22779;DHT22;11556;51.194;3.800;2023-06-04T08:06:11;27.70;57.20
22779;DHT22;11556;51.194;3.800;2023-06-04T08:08:45;28.90;55.20
22779;DHT22;11556;51.194;3.800;2023-06-04T08:11:14;28.60;54.50
22779;DHT22;11556;51.194;3.800;2023-06-04T08:13:40;28.90;53.50
22779;DHT22;11556;51.194;3.800;2023-06-04T08:16:06;28.70;55.00
22779;DHT22;11556;51.194;3.800;2023-06-04T08:18:31;28.80;53.10
22779;DHT22;11556;51.194;3.800;2023-06-04T08:20:57;29.50;51.00
22779;DHT22;11556;51.194;3.800;2023-06-04T08:23:23;29.20;53.00
22779;DHT22;11556;51.194;3.800;2023-06-04T08:25:48;29.50;50.50
22779;DHT22;11556;51.194;3.800;2023-06-04T08:28:14;28.80;51.40
22779;DHT22;11556;51.194;3.800;2023-06-04T08:30:44;29.10;50.80
22779;DHT22;11556;51.194;3.800;2023-06-04T08:33:11;28.90;50.90
22779;DHT22;11556;51.194;3.800;2023-06-04T08:35:36;28.90;51.30
22779;DHT22;11556;51.194;3.800;2023-06-04T08:38:02;29.00;50.50
22779;DHT22;11556;51.194;3.800;2023-06-04T08:40:28;29.00;50.80
22779;DHT22;11556;51.194;3.800;2023-06-04T08:42:56;29.20;49.90
22779;DHT22;11556;51.194;3.800;2023-06-04T08:45:24;29.90;50.30
22779;DHT22;11556;51.194;3.800;2023-06-04T08:47:51;29.90;46.80
22779;DHT22;11556;51.194;3.800;2023-06-04T08:50:19;29.50;46.50
22779;DHT22;11556;51.194;3.800;2023-06-04T08:52:45;29.30;47.40
22779;DHT22;11556;51.194;3.800;2023-06-04T08:55:11;30.30;47.70
22779;DHT22;11556;51.194;3.800;2023-06-04T08:57:39;30.80;46.40
22779;DHT22;11556;51.194;3.800;2023-06-04T09:00:06;30.50;45.00
22779;DHT22;11556;51.194;3.800;2023-06-04T09:02:35;29.70;47.00
22779;DHT22;11556;51.194;3.800;2023-06-04T09:05:03;29.70;46.30
22779;DHT22;11556;51.194;3.800;2023-06-04T09:07:30;29.60;46.90
22779;DHT22;11556;51.194;3.800;2023-06-04T09:09:56;29.60;46.80
22779;DHT22;11556;51.194;3.800;2023-06-04T09:12:24;29.70;47.80
22779;DHT22;11556;51.194;3.800;2023-06-04T09:14:50;29.80;48.00
22779;DHT22;11556;51.194;3.800;2023-06-04T09:17:21;29.80;44.90
22779;DHT22;11556;51.194;3.800;2023-06-04T09:19:47;30.00;44.10
22779;DHT22;11556;51.194;3.800;2023-06-04T09:22:13;29.60;45.20
22779;DHT22;11556;51.194;3.800;2023-06-04T09:24:41;30.30;44.80
22779;DHT22;11556;51.194;3.800;2023-06-04T09:27:11;29.90;46.20
22779;DHT22;11556;51.194;3.800;2023-06-04T09:29:38;30.20;45.10
22779;DHT22;11556;51.194;3.800;2023-06-04T09:32:04;30.40;43.00
22779;DHT22;11556;51.194;3.800;2023-06-04T09:34:30;30.20;43.20
22779;DHT22;11556;51.194;3.800;2023-06-04T09:36:56;29.70;43.90
22779;DHT22;11556;51.194;3.800;2023-06-04T09:39:22;29.60;44.50
22779;DHT22;11556;51.194;3.800;2023-06-04T09:42:01;29.50;44.40
22779;DHT22;11556;51.194;3.800;2023-06-04T09:44:29;30.00;44.40
22779;DHT22;11556;51.194;3.800;2023-06-04T09:46:56;30.70;44.20
22779;DHT22;11556;51.194;3.800;2023-06-04T09:49:22;30.00;44.10
22779;DHT22;11556;51.194;3.800;2023-06-04T09:51:48;30.20;41.60
22779;DHT22;11556;51.194;3.800;2023-06-04T09:54:14;29.70;41.70
22779;DHT22;11556;51.194;3.800;2023-06-04T09:56:40;29.60;42.50
22779;DHT22;11556;51.194;3.800;2023-06-04T09:59:08;28.80;43.50
22779;DHT22;11556;51.194;3.800;2023-06-04T10:01:38;29.40;44.40
22779;DHT22;11556;51.194;3.800;2023-06-04T10:04:07;29.20;44.60
22779;DHT22;11556;51.194;3.800;2023-06-04T10:06:35;29.10;43.60
22779;DHT22;11556;51.194;3.800;2023-06-04T10:09:05;29.10;42.40
22779;DHT22;11556;51.194;3.800;2023-06-04T10:11:35;28.90;43.50
22779;DHT22;11556;51.194;3.800;2023-06-04T10:14:03;28.90;44.60
22779;DHT22;11556;51.194;3.800;2023-06-04T10:16:32;28.30;44.80
22779;DHT22;11556;51.194;3.800;2023-06-04T10:18:59;27.80;46.00
22779;DHT22;11556;51.194;3.800;2023-06-04T10:21:26;27.90;46.40
22779;DHT22;11556;51.194;3.800;2023-06-04T10:23:53;28.30;45.80
22779;DHT22;11556;51.194;3.800;2023-06-04T10:26:18;28.70;46.00
22779;DHT22;11556;51.194;3.800;2023-06-04T10:28:44;29.70;43.40
22779;DHT22;11556;51.194;3.800;2023-06-04T10:31:10;30.40;43.00
22779;DHT22;11556;51.194;3.800;2023-06-04T10:33:37;30.20;43.00
22779;DHT22;11556;51.194;3.800;2023-06-04T10:36:20;29.70;43.90
22779;DHT22;11556;51.194;3.800;2023-06-04T10:38:53;29.60;43.40
22779;DHT22;11556;51.194;3.800;2023-06-04T10:41:20;29.40;45.20
22779;DHT22;11556;51.194;3.800;2023-06-04T10:43:47;29.20;43.60
22779;DHT22;11556;51.194;3.800;2023-06-04T10:46:18;28.90;43.60
22779;DHT22;11556;51.194;3.800;2023-06-04T10:48:47;28.00;45.80
22779;DHT22;11556;51.194;3.800;2023-06-04T10:51:13;28.40;44.60
22779;DHT22;11556;51.194;3.800;2023-06-04T10:53:39;28.90;43.90
22779;DHT22;11556;51.194;3.800;2023-06-04T10:56:05;29.10;43.50
22779;DHT22;11556;51.194;3.800;2023-06-04T10:58:34;28.60;44.20
22779;DHT22;11556;51.194;3.800;2023-06-04T11:01:00;27.90;46.30
22779;DHT22;11556;51.194;3.800;2023-06-04T11:03:36;27.20;46.70
22779;DHT22;11556;51.194;3.800;2023-06-04T11:06:02;28.10;46.30
22779;DHT22;11556;51.194;3.800;2023-06-04T11:08:29;28.50;45.20
22779;DHT22;11556;51.194;3.800;2023-06-04T11:10:55;29.50;43.00
22779;DHT22;11556;51.194;3.800;2023-06-04T11:13:27;29.70;42.40
22779;DHT22;11556;51.194;3.800;2023-06-04T11:15:52;28.50;43.40
22779;DHT22;11556;51.194;3.800;2023-06-04T11:18:22;27.70;44.90
22779;DHT22;11556;51.194;3.800;2023-06-04T11:20:58;27.50;45.10
22779;DHT22;11556;51.194;3.800;2023-06-04T11:23:24;27.80;43.60
22779;DHT22;11556;51.194;3.800;2023-06-04T11:25:52;27.70;43.40
22779;DHT22;11556;51.194;3.800;2023-06-04T11:28:18;27.60;44.40
22779;DHT22;11556;51.194;3.800;2023-06-04T11:30:55;27.90;45.40
22779;DHT22;11556;51.194;3.800;2023-06-04T11:33:20;28.60;42.80
22779;DHT22;11556;51.194;3.800;2023-06-04T11:35:46;29.40;42.80
22779;DHT22;11556;51.194;3.800;2023-06-04T11:38:11;28.80;42.00
22779;DHT22;11556;51.194;3.800;2023-06-04T11:40:37;27.80;43.90
22779;DHT22;11556;51.194;3.800;2023-06-04T11:43:03;27.50;45.20
22779;DHT22;11556;51.194;3.800;2023-06-04T11:45:29;28.10;43.30
22779;DHT22;11556;51.194;3.800;2023-06-04T11:47:57;28.90;43.70
22779;DHT22;11556;51.194;3.800;2023-06-04T11:50:26;28.60;42.30
22779;DHT22;11556;51.194;3.800;2023-06-04T11:52:52;29.20;41.50
22779;DHT22;11556;51.194;3.800;2023-06-04T11:55:19;29.00;41.50
22779;DHT22;11556;51.194;3.800;2023-06-04T11:57:47;28.80;41.60
22779;DHT22;11556;51.194;3.800;2023-06-04T12:00:14;29.00;41.90
22779;DHT22;11556;51.194;3.800;2023-06-04T12:05:15;28.60;41.00
22779;DHT22;11556;51.194;3.800;2023-06-04T12:07:41;28.70;42.70
22779;DHT22;11556;51.194;3.800;2023-06-04T12:10:08;28.50;42.80
22779;DHT22;11556;51.194;3.800;2023-06-04T12:12:34;29.00;41.90
22779;DHT22;11556;51.194;3.800;2023-06-04T12:15:01;29.30;41.50
22779;DHT22;11556;51.194;3.800;2023-06-04T12:17:27;28.80;41.70
22779;DHT22;11556;51.194;3.800;2023-06-04T12:19:52;28.30;42.50
22779;DHT22;11556;51.194;3.800;2023-06-04T12:22:18;28.10;43.20
22779;DHT22;11556;51.194;3.800;2023-06-04T12:24:52;28.30;43.70
22779;DHT22;11556;51.194;3.800;2023-06-04T12:27:22;28.70;42.00
22779;DHT22;11556;51.194;3.800;2023-06-04T12:29:58;28.20;43.90
22779;DHT22;11556;51.194;3.800;2023-06-04T12:32:25;28.30;43.20
22779;DHT22;11556;51.194;3.800;2023-06-04T12:34:50;28.40;43.10
22779;DHT22;11556;51.194;3.800;2023-06-04T12:37:16;27.80;43.80
22779;DHT22;11556;51.194;3.800;2023-06-04T12:39:42;28.30;43.30
22779;DHT22;11556;51.194;3.800;2023-06-04T12:42:08;28.20;44.00
22779;DHT22;11556;51.194;3.800;2023-06-04T12:44:41;28.60;43.60
22779;DHT22;11556;51.194;3.800;2023-06-04T12:47:07;28.70;43.30
22779;DHT22;11556;51.194;3.800;2023-06-04T12:49:33;29.10;41.90
22779;DHT22;11556;51.194;3.800;2023-06-04T12:51:59;28.40;42.80
22779;DHT22;11556;51.194;3.800;2023-06-04T12:54:24;28.00;45.00
22779;DHT22;11556;51.194;3.800;2023-06-04T12:56:52;28.50;43.70
22779;DHT22;11556;51.194;3.800;2023-06-04T12:59:18;29.00;44.00
22779;DHT22;11556;51.194;3.800;2023-06-04T13:01:44;28.00;44.20
22779;DHT22;11556;51.194;3.800;2023-06-04T13:04:10;28.00;44.70
22779;DHT22;11556;51.194;3.800;2023-06-04T13:06:37;27.50;45.00
22779;DHT22;11556;51.194;3.800;2023-06-04T13:09:04;27.30;45.50
22779;DHT22;11556;51.194;3.800;2023-06-04T13:11:37;27.60;44.80
22779;DHT22;11556;51.194;3.800;2023-06-04T13:14:02;28.30;44.20
22779;DHT22;11556;51.194;3.800;2023-06-04T13:16:28;28.30;43.00
22779;DHT22;11556;51.194;3.800;2023-06-04T13:18:53;28.70;43.10
22779;DHT22;11556;51.194;3.800;2023-06-04T13:21:19;28.80;42.60
22779;DHT22;11556;51.194;3.800;2023-06-04T13:23:45;28.30;42.90
22779;DHT22;11556;51.194;3.800;2023-06-04T13:26:10;28.20;45.00
22779;DHT22;11556;51.194;3.800;2023-06-04T13:28:36;28.00;44.00
22779;DHT22;11556;51.194;3.800;2023-06-04T13:31:02;27.70;45.00
22779;DHT22;11556;51.194;3.800;2023-06-04T13:33:28;27.90;44.30
22779;DHT22;11556;51.194;3.800;2023-06-04T13:35:53;27.70;45.00
22779;DHT22;11556;51.194;3.800;2023-06-04T13:38:19;27.40;44.90
22779;DHT22;11556;51.194;3.800;2023-06-04T13:40:45;27.30;45.20
22779;DHT22;11556;51.194;3.800;2023-06-04T13:43:10;27.40;45.00
22779;DHT22;11556;51.194;3.800;2023-06-04T13:45:36;27.50;45.90
22779;DHT22;11556;51.194;3.800;2023-06-04T13:48:01;27.70;45.30
22779;DHT22;11556;51.194;3.800;2023-06-04T13:50:31;27.10;46.90
22779;DHT22;11556;51.194;3.800;2023-06-04T13:52:57;26.70;46.90
22779;DHT22;11556;51.194;3.800;2023-06-04T13:55:23;26.60;46.10
22779;DHT22;11556;51.194;3.800;2023-06-04T13:57:48;26.10;46.80
22779;DHT22;11556;51.194;3.800;2023-06-04T14:00:14;25.60;47.90
22779;DHT22;11556;51.194;3.800;2023-06-04T14:02:40;26.00;48.70
22779;DHT22;11556;51.194;3.800;2023-06-04T14:05:06;26.30;47.80
22779;DHT22;11556;51.194;3.800;2023-06-04T14:07:32;26.30;48.80
22779;DHT22;11556;51.194;3.800;2023-06-04T14:09:58;26.40;47.30
22779;DHT22;11556;51.194;3.800;2023-06-04T14:12:24;26.50;46.70
22779;DHT22;11556;51.194;3.800;2023-06-04T14:14:50;26.30;48.10
22779;DHT22;11556;51.194;3.800;2023-06-04T14:17:16;26.20;47.70
22779;DHT22;11556;51.194;3.800;2023-06-04T14:19:42;26.40;48.20
22779;DHT22;11556;51.194;3.800;2023-06-04T14:22:09;26.70;47.30
22779;DHT22;11556;51.194;3.800;2023-06-04T14:24:34;26.40;48.70
22779;DHT22;11556;51.194;3.800;2023-06-04T14:27:00;26.20;48.80
22779;DHT22;11556;51.194;3.800;2023-06-04T14:29:27;26.40;48.50
22779;DHT22;11556;51.194;3.800;2023-06-04T14:31:52;26.40;47.50
22779;DHT22;11556;51.194;3.800;2023-06-04T14:34:18;26.40;47.80
22779;DHT22;11556;51.194;3.800;2023-06-04T14:36:44;26.30;49.30
22779;DHT22;11556;51.194;3.800;2023-06-04T14:39:09;26.40;47.80
22779;DHT22;11556;51.194;3.800;2023-06-04T14:41:35;26.10;48.50
22779;DHT22;11556;51.194;3.800;2023-06-04T14:44:00;26.20;49.00
22779;DHT22;11556;51.194;3.800;2023-06-04T14:46:26;26.00;50.50
22779;DHT22;11556;51.194;3.800;2023-06-04T14:48:52;25.80;52.90
22779;DHT22;11556;51.194;3.800;2023-06-04T14:51:20;25.70;55.20
22779;DHT22;11556;51.194;3.800;2023-06-04T14:53:46;25.50;55.00
22779;DHT22;11556;51.194;3.800;2023-06-04T14:56:12;25.30;57.10
22779;DHT22;11556;51.194;3.800;2023-06-04T14:58:38;25.30;57.20
22779;DHT22;11556;51.194;3.800;2023-06-04T15:01:03;25.10;57.90
22779;DHT22;11556;51.194;3.800;2023-06-04T15:03:29;24.90;58.10
22779;DHT22;11556;51.194;3.800;2023-06-04T15:05:55;24.90;59.60
22779;DHT22;11556;51.194;3.800;2023-06-04T15:08:21;24.90;61.50
22779;DHT22;11556;51.194;3.800;2023-06-04T15:10:47;24.80;63.60
22779;DHT22;11556;51.194;3.800;2023-06-04T15:13:13;24.80;65.00
22779;DHT22;11556;51.194;3.800;2023-06-04T15:15:38;24.90;64.10
22779;DHT22;11556;51.194;3.800;2023-06-04T15:18:04;25.00;63.80
22779;DHT22;11556;51.194;3.800;2023-06-04T15:20:32;24.80;65.80
22779;DHT22;11556;51.194;3.800;2023-06-04T15:22:57;24.50;67.40
22779;DHT22;11556;51.194;3.800;2023-06-04T15:25:23;24.30;69.00
22779;DHT22;11556;51.194;3.800;2023-06-04T15:27:49;24.50;67.70
22779;DHT22;11556;51.194;3.800;2023-06-04T15:30:15;24.60;67.70
22779;DHT22;11556;51.194;3.800;2023-06-04T15:32:42;24.70;66.80
22779;DHT22;11556;51.194;3.800;2023-06-04T15:35:09;24.50;67.20
22779;DHT22;11556;51.194;3.800;2023-06-04T15:37:36;24.40;68.40